sensor_id;sensor_type;location;lat;lon;timestamp;temperature;humidity
1800;DHT22;919;48.274;12.292;2023-03-14T00:00:40;7.80;99.90
1800;DHT22;919;48.274;12.292;2023-03-14T00:03:06;7.70;99.90
1800;DHT22;919;48.274;12.292;2023-03-14T00:05:34;7.50;99.90
1800;DHT22;919;48.274;12.292;2023-03-14T00:08:00;7.50;99.90
1800;DHT22;919;48.274;12.292;2023-03-14T00:10:29;7.40;99.90
1800;DHT22;919;48.274;12.292;2023-03-14T00:12:55;7.40;99.90
1800;DHT22;919;48.274;12.292;2023-03-14T00:15:22;7.40;99.90
1800;DHT22;919;48.274;12.292;2023-03-14T00:17:49;7.50;99.90
1800;DHT22;919;48.274;12.292;2023-03-14T00:20:16;7.50;99.90
1800;DHT22;919;48.274;12.292;2023-03-14T00:22:43;7.50;99.90
1800;DHT22;919;48.274;12.292;2023-03-14T00:25:11;7.20;99.90
1800;DHT22;919;48.274;12.292;2023-03-14T00:27:39;7.10;99.90
1800;DHT22;919;48.274;12.292;2023-03-14T00:30:07;7.00;99.90
1800;DHT22;919;48.274;12.292;2023-03-14T00:32:34;7.00;99.90
1800;DHT22;919;48.274;12.292;2023-03-14T00:35:01;7.10;99.90
1800;DHT22;919;48.274;12.292;2023-03-14T00:37:28;7.00;99.90
1800;DHT22;919;48.274;12.292;2023-03-14T00:39:55;6.90;99.90
1800;DHT22;919;48.274;12.292;2023-03-14T00:42:24;6.90;99.90
1800;DHT22;919;48.274;12.292;2023-03-14T00:44:52;6.80;99.90
1800;DHT22;919;48.274;12.292;2023-03-14T00:47:18;6.80;99.90
1800;DHT22;919;48.274;12.292;2023-03-14T00:49:45;6.70;99.90
1800;DHT22;919;48.274;12.292;2023-03-14T00:52:12;6.80;99.90
1800;DHT22;919;48.274;12.292;2023-03-14T00:54:39;6.90;99.90
1800;DHT22;919;48.274;12.292;2023-03-14T00:57:05;6.90;99.90
1800;DHT22;919;48.274;12.292;2023-03-14T00:59:32;6.90;99.90
1800;DHT22;919;48.274;12.292;2023-03-14T01:02:00;6.90;99.90
1800;DHT22;919;48.274;12.292;2023-03-14T01:04:27;6.90;99.90
1800;DHT22;919;48.274;12.292;2023-03-14T01:06:55;6.80;99.90
1800;DHT22;919;48.274;12.292;2023-03-14T01:09:22;6.70;99.90
1800;DHT22;919;48.274;12.292;2023-03-14T01:11:49;6.60;99.90
1800;DHT22;919;48.274;12.292;2023-03-14T01:14:15;6.70;99.90
1800;DHT22;919;48.274;12.292;2023-03-14T01:16:42;6.80;99.90
1800;DHT22;919;48.274;12.292;2023-03-14T01:19:10;7.00;99.90
1800;DHT22;919;48.274;12.292;2023-03-14T01:21:37;7.00;99.90
1800;DHT22;919;48.274;12.292;2023-03-14T01:24:05;7.20;99.90
1800;DHT22;919;48.274;12.292;2023-03-14T01:26:34;7.30;99.90
1800;DHT22;919;48.274;12.292;2023-03-14T01:29:01;7.40;99.90
1800;DHT22;919;48.274;12.292;2023-03-14T01:31:29;7.50;99.90
1800;DHT22;919;48.274;12.292;2023-03-14T01:33:56;7.50;99.90
1800;DHT22;919;48.274;12.292;2023-03-14T01:36:24;7.70;99.90
1800;DHT22;919;48.274;12.292;2023-03-14T01:38:50;7.80;99.90
1800;DHT22;919;48.274;12.292;2023-03-14T01:41:20;7.80;99.90
1800;DHT22;919;48.274;12.292;2023-03-14T01:43:47;7.70;99.90
1800;DHT22;919;48.274;12.292;2023-03-14T01:46:38;7.80;99.90
1800;DHT22;919;48.274;12.292;2023-03-14T01:49:15;7.80;99.90
1800;DHT22;919;48.274;12.292;2023-03-14T01:51:47;7.80;99.90
1800;DHT22;919;48.274;12.292;2023-03-14T01:54:18;7.80;99.90
1800;DHT22;919;48.274;12.292;2023-03-14T01:56:50;7.90;99.90
1800;DHT22;919;48.274;12.292;2023-03-14T01:59:19;7.90;99.90
1800;DHT22;919;48.274;12.292;2023-03-14T02:01:47;7.80;99.90
1800;DHT22;919;48.274;12.292;2023-03-14T02:04:16;7.80;99.90
1800;DHT22;919;48.274;12.292;2023-03-14T02:06:51;7.80;99.90
1800;DHT22;919;48.274;12.292;2023-03-14T02:09:19;7.80;99.90
1800;DHT22;919;48.274;12.292;2023-03-14T02:11:46;7.70;99.90
1800;DHT22;919;48.274;12.292;2023-03-14T02:14:21;7.80;99.90
1800;DHT22;919;48.274;12.292;2023-03-14T02:16:51;8.00;99.90
1800;DHT22;919;48.274;12.292;2023-03-14T02:19:25;8.10;99.90
1800;DHT22;919;48.274;12.292;2023-03-14T02:21:59;8.40;99.90
1800;DHT22;919;48.274;12.292;2023-03-14T02:24:34;8.40;99.90
1800;DHT22;919;48.274;12.292;2023-03-14T02:27:07;8.50;99.90
1800;DHT22;919;48.274;12.292;2023-03-14T02:29:38;8.70;99.90
1800;DHT22;919;48.274;12.292;2023-03-14T02:32:06;8.70;99.90
1800;DHT22;919;48.274;12.292;2023-03-14T02:34:35;8.90;99.90
1800;DHT22;919;48.274;12.292;2023-03-14T02:37:02;9.00;99.90
1800;DHT22;919;48.274;12.292;2023-03-14T02:39:35;9.10;99.90
1800;DHT22;919;48.274;12.292;2023-03-14T02:42:03;9.20;99.90
1800;DHT22;919;48.274;12.292;2023-03-14T02:44:31;9.20;99.90
1800;DHT22;919;48.274;12.292;2023-03-14T02:46:58;9.20;99.90
1800;DHT22;919;48.274;12.292;2023-03-14T02:49:25;9.20;99.90
1800;DHT22;919;48.274;12.292;2023-03-14T02:51:53;9.20;99.90
1800;DHT22;919;48.274;12.292;2023-03-14T02:54:20;9.20;99.90
1800;DHT22;919;48.274;12.292;2023-03-14T02:56:47;9.20;99.90
1800;DHT22;919;48.274;12.292;2023-03-14T02:59:14;9.20;99.90
1800;DHT22;919;48.274;12.292;2023-03-14T03:01:42;9.20;99.90
1800;DHT22;919;48.274;12.292;2023-03-14T03:04:09;9.20;99.90
1800;DHT22;919;48.274;12.292;2023-03-14T03:06:35;9.20;99.90
1800;DHT22;919;48.274;12.292;2023-03-14T03:09:02;9.20;99.90
1800;DHT22;919;48.274;12.292;2023-03-14T03:11:29;9.20;99.90
1800;DHT22;919;48.274;12.292;2023-03-14T03:13:57;9.10;99.90
1800;DHT22;919;48.274;12.292;2023-03-14T03:16:23;9.00;99.90
1800;DHT22;919;48.274;12.292;2023-03-14T03:18:51;9.00;99.90
1800;DHT22;919;48.274;12.292;2023-03-14T03:21:18;9.00;99.90
1800;DHT22;919;48.274;12.292;2023-03-14T03:23:48;9.00;99.90
1800;DHT22;919;48.274;12.292;2023-03-14T03:26:15;9.00;99.90
1800;DHT22;919;48.274;12.292;2023-03-14T03:28:42;9.00;99.90
1800;DHT22;919;48.274;12.292;2023-03-14T03:31:10;9.00;99.90
1800;DHT22;919;48.274;12.292;2023-03-14T03:33:37;8.90;99.90
1800;DHT22;919;48.274;12.292;2023-03-14T03:36:06;8.90;99.90
1800;DHT22;919;48.274;12.292;2023-03-14T03:38:33;8.90;99.90
1800;DHT22;919;48.274;12.292;2023-03-14T03:41:02;8.90;99.90
1800;DHT22;919;48.274;12.292;2023-03-14T03:43:29;8.90;99.90
1800;DHT22;919;48.274;12.292;2023-03-14T03:45:56;8.90;99.90
1800;DHT22;919;48.274;12.292;2023-03-14T03:48:22;8.90;99.90
1800;DHT22;919;48.274;12.292;2023-03-14T03:50:49;8.90;99.90
1800;DHT22;919;48.274;12.292;2023-03-14T03:53:17;8.90;99.90
1800;DHT22;919;48.274;12.292;2023-03-14T03:55:44;8.90;99.90
1800;DHT22;919;48.274;12.292;2023-03-14T03:58:10;8.90;99.90
1800;DHT22;919;48.274;12.292;2023-03-14T04:00:37;9.00;99.90
1800;DHT22;919;48.274;12.292;2023-03-14T04:03:04;9.10;99.90
1800;DHT22;919;48.274;12.292;2023-03-14T04:05:32;9.10;99.90
1800;DHT22;919;48.274;12.292;2023-03-14T04:07:59;9.20;99.90
1800;DHT22;919;48.274;12.292;2023-03-14T04:10:28;9.30;99.90
1800;DHT22;919;48.274;12.292;2023-03-14T04:12:55;9.20;99.90
1800;DHT22;919;48.274;12.292;2023-03-14T04:15:22;9.30;99.90
1800;DHT22;919;48.274;12.292;2023-03-14T04:17:48;9.20;99.90
1800;DHT22;919;48.274;12.292;2023-03-14T04:20:15;9.20;99.90
1800;DHT22;919;48.274;12.292;2023-03-14T04:22:42;9.20;99.90
1800;DHT22;919;48.274;12.292;2023-03-14T04:25:09;9.20;99.90
1800;DHT22;919;48.274;12.292;2023-03-14T04:27:37;9.10;99.90
1800;DHT22;919;48.274;12.292;2023-03-14T04:30:04;9.10;99.90
1800;DHT22;919;48.274;12.292;2023-03-14T04:32:31;9.10;99.90
1800;DHT22;919;48.274;12.292;2023-03-14T04:34:58;9.00;99.90
1800;DHT22;919;48.274;12.292;2023-03-14T04:37:24;9.00;99.90
1800;DHT22;919;48.274;12.292;2023-03-14T04:39:51;9.00;99.90
1800;DHT22;919;48.274;12.292;2023-03-14T04:42:18;9.00;99.90
1800;DHT22;919;48.274;12.292;2023-03-14T04:44:46;9.00;99.90
1800;DHT22;919;48.274;12.292;2023-03-14T04:47:14;9.00;99.90
1800;DHT22;919;48.274;12.292;2023-03-14T04:49:41;9.00;99.90
1800;DHT22;919;48.274;12.292;2023-03-14T04:52:08;8.90;99.90
1800;DHT22;919;48.274;12.292;2023-03-14T04:54:35;9.00;99.90
1800;DHT22;919;48.274;12.292;2023-03-14T04:57:02;9.00;99.90
1800;DHT22;919;48.274;12.292;2023-03-14T04:59:28;9.00;99.90
1800;DHT22;919;48.274;12.292;2023-03-14T05:01:56;9.00;99.90
1800;DHT22;919;48.274;12.292;2023-03-14T05:04:24;9.00;99.90
1800;DHT22;919;48.274;12.292;2023-03-14T05:06:51;9.00;99.90
1800;DHT22;919;48.274;12.292;2023-03-14T05:09:17;8.90;99.90
1800;DHT22;919;48.274;12.292;2023-03-14T05:11:44;9.00;99.90
1800;DHT22;919;48.274;12.292;2023-03-14T05:14:11;8.90;99.90
1800;DHT22;919;48.274;12.292;2023-03-14T05:16:37;8.80;99.90
1800;DHT22;919;48.274;12.292;2023-03-14T05:19:05;8.90;99.90
1800;DHT22;919;48.274;12.292;2023-03-14T05:21:32;8.80;99.90
1800;DHT22;919;48.274;12.292;2023-03-14T05:23:59;8.90;99.90
1800;DHT22;919;48.274;12.292;2023-03-14T05:26:25;8.90;99.90
1800;DHT22;919;48.274;12.292;2023-03-14T05:28:52;8.80;99.90
1800;DHT22;919;48.274;12.292;2023-03-14T05:31:19;8.80;99.90
1800;DHT22;919;48.274;12.292;2023-03-14T05:33:46;8.90;99.90
1800;DHT22;919;48.274;12.292;2023-03-14T05:36:14;8.90;99.90
1800;DHT22;919;48.274;12.292;2023-03-14T05:38:40;8.90;99.90
1800;DHT22;919;48.274;12.292;2023-03-14T05:41:07;8.80;99.90
1800;DHT22;919;48.274;12.292;2023-03-14T05:43:34;8.80;99.90
1800;DHT22;919;48.274;12.292;2023-03-14T05:46:01;8.80;99.90
1800;DHT22;919;48.274;12.292;2023-03-14T05:48:27;8.90;99.90
1800;DHT22;919;48.274;12.292;2023-03-14T05:50:54;8.80;99.90
1800;DHT22;919;48.274;12.292;2023-03-14T05:53:23;8.80;99.90
1800;DHT22;919;48.274;12.292;2023-03-14T05:55:51;8.90;99.90
1800;DHT22;919;48.274;12.292;2023-03-14T05:58:18;8.80;99.90
1800;DHT22;919;48.274;12.292;2023-03-14T06:00:45;8.80;99.90
1800;DHT22;919;48.274;12.292;2023-03-14T06:03:12;8.90;99.90
1800;DHT22;919;48.274;12.292;2023-03-14T06:05:38;8.80;99.90
1800;DHT22;919;48.274;12.292;2023-03-14T06:08:05;8.80;99.90
1800;DHT22;919;48.274;12.292;2023-03-14T06:10:34;8.80;99.90
1800;DHT22;919;48.274;12.292;2023-03-14T06:13:01;8.80;99.90
1800;DHT22;919;48.274;12.292;2023-03-14T06:15:28;8.80;99.90
1800;DHT22;919;48.274;12.292;2023-03-14T06:17:54;8.80;99.90
1800;DHT22;919;48.274;12.292;2023-03-14T06:20:22;8.80;99.90
1800;DHT22;919;48.274;12.292;2023-03-14T06:22:48;8.70;99.90
1800;DHT22;919;48.274;12.292;2023-03-14T06:25:15;8.80;99.90
1800;DHT22;919;48.274;12.292;2023-03-14T06:27:43;8.90;99.90
1800;DHT22;919;48.274;12.292;2023-03-14T06:30:11;8.90;99.90
1800;DHT22;919;48.274;12.292;2023-03-14T06:32:37;8.80;99.90
1800;DHT22;919;48.274;12.292;2023-03-14T06:35:05;8.90;99.90
1800;DHT22;919;48.274;12.292;2023-03-14T06:37:31;8.90;99.90
1800;DHT22;919;48.274;12.292;2023-03-14T06:39:58;8.90;99.90
1800;DHT22;919;48.274;12.292;2023-03-14T06:42:25;8.90;99.90
1800;DHT22;919;48.274;12.292;2023-03-14T06:44:53;8.90;99.90
1800;DHT22;919;48.274;12.292;2023-03-14T06:47:19;8.90;99.90
1800;DHT22;919;48.274;12.292;2023-03-14T06:49:46;8.90;99.90
1800;DHT22;919;48.274;12.292;2023-03-14T06:52:13;8.90;99.90
1800;DHT22;919;48.274;12.292;2023-03-14T06:54:39;9.00;99.90
1800;DHT22;919;48.274;12.292;2023-03-14T06:57:06;9.00;99.90
1800;DHT22;919;48.274;12.292;2023-03-14T06:59:33;8.90;99.90
1800;DHT22;919;48.274;12.292;2023-03-14T07:02:01;8.90;99.90
1800;DHT22;919;48.274;12.292;2023-03-14T07:04:28;9.00;99.90
1800;DHT22;919;48.274;12.292;2023-03-14T07:06:54;9.00;99.90
1800;DHT22;919;48.274;12.292;2023-03-14T07:09:21;9.10;99.90
1800;DHT22;919;48.274;12.292;2023-03-14T07:11:48;9.10;99.90
1800;DHT22;919;48.274;12.292;2023-03-14T07:14:14;9.10;99.90
1800;DHT22;919;48.274;12.292;2023-03-14T07:16:41;9.20;99.90
1800;DHT22;919;48.274;12.292;2023-03-14T07:19:09;9.30;99.90
1800;DHT22;919;48.274;12.292;2023-03-14T07:21:36;9.30;99.90
1800;DHT22;919;48.274;12.292;2023-03-14T07:24:03;9.30;99.90
1800;DHT22;919;48.274;12.292;2023-03-14T07:26:29;9.20;99.90
1800;DHT22;919;48.274;12.292;2023-03-14T07:28:56;9.20;99.90
1800;DHT22;919;48.274;12.292;2023-03-14T07:31:23;9.20;99.90
1800;DHT22;919;48.274;12.292;2023-03-14T07:33:50;9.10;99.90
1800;DHT22;919;48.274;12.292;2023-03-14T07:36:18;9.10;99.90
1800;DHT22;919;48.274;12.292;2023-03-14T07:38:45;9.10;99.90
1800;DHT22;919;48.274;12.292;2023-03-14T07:41:12;9.20;99.90
1800;DHT22;919;48.274;12.292;2023-03-14T07:43:38;9.20;99.90
1800;DHT22;919;48.274;12.292;2023-03-14T07:46:05;9.20;99.90
1800;DHT22;919;48.274;12.292;2023-03-14T07:48:32;9.20;99.90
1800;DHT22;919;48.274;12.292;2023-03-14T07:50:59;9.20;99.90
1800;DHT22;919;48.274;12.292;2023-03-14T07:53:27;9.20;99.90
1800;DHT22;919;48.274;12.292;2023-03-14T07:55:54;9.20;99.90
1800;DHT22;919;48.274;12.292;2023-03-14T07:58:21;9.30;99.90
1800;DHT22;919;48.274;12.292;2023-03-14T08:00:48;9.30;99.90
1800;DHT22;919;48.274;12.292;2023-03-14T08:03:15;9.30;99.90
1800;DHT22;919;48.274;12.292;2023-03-14T08:05:43;9.30;99.90
1800;DHT22;919;48.274;12.292;2023-03-14T08:08:10;9.40;99.90
1800;DHT22;919;48.274;12.292;2023-03-14T08:10:38;9.50;99.90
1800;DHT22;919;48.274;12.292;2023-03-14T08:13:04;9.50;99.90
1800;DHT22;919;48.274;12.292;2023-03-14T08:15:31;9.60;99.90
1800;DHT22;919;48.274;12.292;2023-03-14T08:17:58;9.60;99.90
1800;DHT22;919;48.274;12.292;2023-03-14T08:20:26;9.60;99.90
1800;DHT22;919;48.274;12.292;2023-03-14T08:22:56;9.60;99.90
1800;DHT22;919;48.274;12.292;2023-03-14T08:25:23;9.60;99.90
1800;DHT22;919;48.274;12.292;2023-03-14T08:27:51;9.60;99.90
1800;DHT22;919;48.274;12.292;2023-03-14T08:30:20;9.70;99.90
1800;DHT22;919;48.274;12.292;2023-03-14T08:32:47;9.80;99.90
1800;DHT22;919;48.274;12.292;2023-03-14T08:35:14;9.80;99.90
1800;DHT22;919;48.274;12.292;2023-03-14T08:37:41;9.90;99.90
1800;DHT22;919;48.274;12.292;2023-03-14T08:40:09;9.90;99.90
1800;DHT22;919;48.274;12.292;2023-03-14T08:42:37;10.00;99.90
1800;DHT22;919;48.274;12.292;2023-03-14T08:45:07;10.00;99.90
1800;DHT22;919;48.274;12.292;2023-03-14T08:47:34;10.10;99.90
1800;DHT22;919;48.274;12.292;2023-03-14T08:50:00;10.10;99.90
1800;DHT22;919;48.274;12.292;2023-03-14T08:52:27;10.20;99.90
1800;DHT22;919;48.274;12.292;2023-03-14T08:54:54;10.20;99.90
1800;DHT22;919;48.274;12.292;2023-03-14T08:57:20;10.20;99.90
1800;DHT22;919;48.274;12.292;2023-03-14T08:59:52;10.30;99.90
1800;DHT22;919;48.274;12.292;2023-03-14T09:02:21;10.30;99.90
1800;DHT22;919;48.274;12.292;2023-03-14T09:04:47;10.30;99.90
1800;DHT22;919;48.274;12.292;2023-03-14T09:07:15;10.30;99.90
1800;DHT22;919;48.274;12.292;2023-03-14T09:09:42;10.30;99.90
1800;DHT22;919;48.274;12.292;2023-03-14T09:12:09;10.30;99.90
1800;DHT22;919;48.274;12.292;2023-03-14T09:14:36;10.30;99.90
1800;DHT22;919;48.274;12.292;2023-03-14T09:17:03;10.30;99.90
1800;DHT22;919;48.274;12.292;2023-03-14T09:19:31;10.30;99.90
1800;DHT22;919;48.274;12.292;2023-03-14T09:21:58;10.40;99.90
1800;DHT22;919;48.274;12.292;2023-03-14T09:24:25;10.40;99.90
1800;DHT22;919;48.274;12.292;2023-03-14T09:26:51;10.50;99.90
1800;DHT22;919;48.274;12.292;2023-03-14T09:29:18;10.50;99.90
1800;DHT22;919;48.274;12.292;2023-03-14T09:31:45;10.50;99.90
1800;DHT22;919;48.274;12.292;2023-03-14T09:34:12;10.60;99.90
1800;DHT22;919;48.274;12.292;2023-03-14T09:36:40;10.60;99.90
1800;DHT22;919;48.274;12.292;2023-03-14T09:39:09;10.50;99.90
1800;DHT22;919;48.274;12.292;2023-03-14T09:41:37;10.60;99.90
1800;DHT22;919;48.274;12.292;2023-03-14T09:44:10;10.50;99.90
1800;DHT22;919;48.274;12.292;2023-03-14T09:46:39;10.50;99.90
1800;DHT22;919;48.274;12.292;2023-03-14T09:49:19;10.60;99.90
1800;DHT22;919;48.274;12.292;2023-03-14T09:51:50;10.50;99.90
1800;DHT22;919;48.274;12.292;2023-03-14T09:54:30;10.60;99.90
1800;DHT22;919;48.274;12.292;2023-03-14T09:56:57;10.60;99.90
1800;DHT22;919;48.274;12.292;2023-03-14T09:59:25;10.60;99.90
1800;DHT22;919;48.274;12.292;2023-03-14T10:01:52;10.60;99.90
1800;DHT22;919;48.274;12.292;2023-03-14T10:04:21;10.70;99.90
1800;DHT22;919;48.274;12.292;2023-03-14T10:06:50;10.70;99.90
1800;DHT22;919;48.274;12.292;2023-03-14T10:09:19;10.80;99.90
1800;DHT22;919;48.274;12.292;2023-03-14T10:11:54;10.90;99.90
1800;DHT22;919;48.274;12.292;2023-03-14T10:14:33;11.00;99.90
1800;DHT22;919;48.274;12.292;2023-03-14T10:17:08;11.10;99.90
1800;DHT22;919;48.274;12.292;2023-03-14T10:19:35;11.00;99.90
1800;DHT22;919;48.274;12.292;2023-03-14T10:22:05;10.90;99.90
1800;DHT22;919;48.274;12.292;2023-03-14T10:24:33;10.80;99.90
1800;DHT22;919;48.274;12.292;2023-03-14T10:27:02;10.80;99.90
1800;DHT22;919;48.274;12.292;2023-03-14T10:29:30;10.80;99.90
1800;DHT22;919;48.274;12.292;2023-03-14T10:31:59;10.70;99.90
1800;DHT22;919;48.274;12.292;2023-03-14T10:34:29;10.60;99.90
1800;DHT22;919;48.274;12.292;2023-03-14T10:36:58;10.60;99.90
1800;DHT22;919;48.274;12.292;2023-03-14T10:39:35;10.60;99.90
1800;DHT22;919;48.274;12.292;2023-03-14T10:42:09;10.60;99.90
1800;DHT22;919;48.274;12.292;2023-03-14T10:44:38;10.60;99.90
1800;DHT22;919;48.274;12.292;2023-03-14T10:47:06;10.50;99.90
1800;DHT22;919;48.274;12.292;2023-03-14T10:49:34;10.40;99.90
1800;DHT22;919;48.274;12.292;2023-03-14T10:52:12;10.40;99.90
1800;DHT22;919;48.274;12.292;2023-03-14T10:54:41;10.40;99.90
1800;DHT22;919;48.274;12.292;2023-03-14T10:57:11;10.50;99.90
1800;DHT22;919;48.274;12.292;2023-03-14T10:59:40;10.60;99.90
1800;DHT22;919;48.274;12.292;2023-03-14T11:02:18;10.70;99.90
1800;DHT22;919;48.274;12.292;2023-03-14T11:04:57;10.80;99.90
1800;DHT22;919;48.274;12.292;2023-03-14T11:07:33;11.00;99.90
1800;DHT22;919;48.274;12.292;2023-03-14T11:10:14;11.10;99.90
1800;DHT22;919;48.274;12.292;2023-03-14T11:12:55;11.30;99.90
1800;DHT22;919;48.274;12.292;2023-03-14T11:15:31;11.60;99.90
1800;DHT22;919;48.274;12.292;2023-03-14T11:20:57;12.10;99.90
1800;DHT22;919;48.274;12.292;2023-03-14T11:23:31;12.40;99.90
1800;DHT22;919;48.274;12.292;2023-03-14T11:26:09;12.60;99.90
1800;DHT22;919;48.274;12.292;2023-03-14T11:28:41;12.80;99.90
1800;DHT22;919;48.274;12.292;2023-03-14T11:31:15;13.00;99.90
1800;DHT22;919;48.274;12.292;2023-03-14T11:33:47;13.10;99.90
1800;DHT22;919;48.274;12.292;2023-03-14T11:36:21;12.90;99.90
1800;DHT22;919;48.274;12.292;2023-03-14T11:38:49;12.80;99.90
1800;DHT22;919;48.274;12.292;2023-03-14T11:41:21;12.50;99.90
1800;DHT22;919;48.274;12.292;2023-03-14T11:43:54;12.20;99.90
1800;DHT22;919;48.274;12.292;2023-03-14T11:46:24;12.10;99.90
1800;DHT22;919;48.274;12.292;2023-03-14T11:48:59;11.90;99.90
1800;DHT22;919;48.274;12.292;2023-03-14T11:51:29;11.70;99.90
1800;DHT22;919;48.274;12.292;2023-03-14T11:54:03;11.50;99.90
1800;DHT22;919;48.274;12.292;2023-03-14T11:56:34;11.40;99.90
1800;DHT22;919;48.274;12.292;2023-03-14T11:59:07;11.50;99.90
1800;DHT22;919;48.274;12.292;2023-03-14T12:01:51;11.40;99.90
1800;DHT22;919;48.274;12.292;2023-03-14T12:04:26;11.50;99.90
1800;DHT22;919;48.274;12.292;2023-03-14T12:07:00;11.60;99.90
1800;DHT22;919;48.274;12.292;2023-03-14T12:09:29;11.80;99.90
1800;DHT22;919;48.274;12.292;2023-03-14T12:12:01;12.00;99.90
1800;DHT22;919;48.274;12.292;2023-03-14T12:14:54;12.30;99.90
1800;DHT22;919;48.274;12.292;2023-03-14T12:17:45;12.40;99.90
1800;DHT22;919;48.274;12.292;2023-03-14T12:20:17;12.40;99.90
1800;DHT22;919;48.274;12.292;2023-03-14T12:22:46;12.20;99.90
1800;DHT22;919;48.274;12.292;2023-03-14T12:25:16;12.00;99.90
1800;DHT22;919;48.274;12.292;2023-03-14T12:28:04;12.00;99.90
1800;DHT22;919;48.274;12.292;2023-03-14T12:30:33;11.80;99.90
1800;DHT22;919;48.274;12.292;2023-03-14T12:36:18;11.70;99.90
1800;DHT22;919;48.274;12.292;2023-03-14T12:39:00;11.70;99.90
1800;DHT22;919;48.274;12.292;2023-03-14T12:41:36;11.60;99.90
1800;DHT22;919;48.274;12.292;2023-03-14T12:50:07;11.70;99.90
1800;DHT22;919;48.274;12.292;2023-03-14T12:52:40;11.40;99.90
1800;DHT22;919;48.274;12.292;2023-03-14T12:55:16;11.40;99.90
1800;DHT22;919;48.274;12.292;2023-03-14T12:57:50;11.30;99.90
1800;DHT22;919;48.274;12.292;2023-03-14T13:00:29;11.20;99.90
1800;DHT22;919;48.274;12.292;2023-03-14T13:03:02;11.10;99.90
1800;DHT22;919;48.274;12.292;2023-03-14T13:05:31;11.20;99.90
1800;DHT22;919;48.274;12.292;2023-03-14T13:08:06;11.20;99.90
1800;DHT22;919;48.274;12.292;2023-03-14T13:10:42;11.20;99.90
1800;DHT22;919;48.274;12.292;2023-03-14T13:13:19;11.20;99.90
1800;DHT22;919;48.274;12.292;2023-03-14T13:15:47;11.20;99.90
1800;DHT22;919;48.274;12.292;2023-03-14T13:18:18;11.30;99.90
1800;DHT22;919;48.274;12.292;2023-03-14T13:20:52;11.30;99.90
1800;DHT22;919;48.274;12.292;2023-03-14T13:23:20;11.30;99.90
1800;DHT22;919;48.274;12.292;2023-03-14T13:25:47;11.20;99.90
1800;DHT22;919;48.274;12.292;2023-03-14T13:28:14;11.30;99.90
1800;DHT22;919;48.274;12.292;2023-03-14T13:30:43;11.30;99.90
1800;DHT22;919;48.274;12.292;2023-03-14T13:33:14;11.30;99.90
1800;DHT22;919;48.274;12.292;2023-03-14T13:35:44;11.40;99.90
1800;DHT22;919;48.274;12.292;2023-03-14T13:38:19;11.50;99.90
1800;DHT22;919;48.274;12.292;2023-03-14T13:40:47;11.60;99.90
1800;DHT22;919;48.274;12.292;2023-03-14T13:43:20;11.70;99.90
1800;DHT22;919;48.274;12.292;2023-03-14T13:45:52;11.70;99.90
1800;DHT22;919;48.274;12.292;2023-03-14T13:48:21;11.80;99.90
1800;DHT22;919;48.274;12.292;2023-03-14T13:50:54;11.80;99.90
1800;DHT22;919;48.274;12.292;2023-03-14T13:53:23;11.70;99.90
1800;DHT22;919;48.274;12.292;2023-03-14T13:55:50;11.70;99.90
1800;DHT22;919;48.274;12.292;2023-03-14T13:58:23;11.70;99.90
1800;DHT22;919;48.274;12.292;2023-03-14T14:00:59;11.60;99.90
1800;DHT22;919;48.274;12.292;2023-03-14T14:03:28;11.50;99.90
1800;DHT22;919;48.274;12.292;2023-03-14T14:05:57;11.50;99.90
1800;DHT22;919;48.274;12.292;2023-03-14T14:08:26;11.40;99.90
1800;DHT22;919;48.274;12.292;2023-03-14T14:10:56;11.50;99.90
1800;DHT22;919;48.274;12.292;2023-03-14T14:13:25;11.50;99.90
1800;DHT22;919;48.274;12.292;2023-03-14T14:15:53;11.50;99.90
1800;DHT22;919;48.274;12.292;2023-03-14T14:18:23;11.50;99.90
1800;DHT22;919;48.274;12.292;2023-03-14T14:20:51;11.40;99.90
1800;DHT22;919;48.274;12.292;2023-03-14T14:23:19;11.20;99.90
1800;DHT22;919;48.274;12.292;2023-03-14T14:25:52;11.10;99.90
1800;DHT22;919;48.274;12.292;2023-03-14T14:28:25;11.00;99.90
1800;DHT22;919;48.274;12.292;2023-03-14T14:31:16;10.90;99.90
1800;DHT22;919;48.274;12.292;2023-03-14T14:33:46;10.70;99.90
1800;DHT22;919;48.274;12.292;2023-03-14T14:36:17;10.50;99.90
1800;DHT22;919;48.274;12.292;2023-03-14T14:38:52;10.50;99.90
1800;DHT22;919;48.274;12.292;2023-03-14T14:41:21;10.20;99.90
1800;DHT22;919;48.274;12.292;2023-03-14T14:43:48;10.10;99.90
1800;DHT22;919;48.274;12.292;2023-03-14T14:46:18;10.10;99.90
1800;DHT22;919;48.274;12.292;2023-03-14T14:48:46;10.10;99.90
1800;DHT22;919;48.274;12.292;2023-03-14T14:51:24;10.20;99.90
1800;DHT22;919;48.274;12.292;2023-03-14T14:54:09;10.20;99.90
1800;DHT22;919;48.274;12.292;2023-03-14T14:56:38;10.20;99.90
1800;DHT22;919;48.274;12.292;2023-03-14T14:59:07;10.10;99.90
1800;DHT22;919;48.274;12.292;2023-03-14T15:01:45;10.00;99.90
1800;DHT22;919;48.274;12.292;2023-03-14T15:04:13;9.80;99.90
1800;DHT22;919;48.274;12.292;2023-03-14T15:06:44;9.50;99.90
1800;DHT22;919;48.274;12.292;2023-03-14T15:09:12;9.40;99.90
1800;DHT22;919;48.274;12.292;2023-03-14T15:11:40;9.30;99.90
1800;DHT22;919;48.274;12.292;2023-03-14T15:14:07;9.20;99.90
1800;DHT22;919;48.274;12.292;2023-03-14T15:16:34;9.20;99.90
1800;DHT22;919;48.274;12.292;2023-03-14T15:19:02;9.00;99.90
1800;DHT22;919;48.274;12.292;2023-03-14T15:21:31;8.90;99.90
1800;DHT22;919;48.274;12.292;2023-03-14T15:23:58;8.70;99.90
1800;DHT22;919;48.274;12.292;2023-03-14T15:26:26;8.60;99.90
1800;DHT22;919;48.274;12.292;2023-03-14T15:28:55;8.40;99.90
1800;DHT22;919;48.274;12.292;2023-03-14T15:31:22;8.30;99.90
1800;DHT22;919;48.274;12.292;2023-03-14T15:33:49;8.10;99.90
1800;DHT22;919;48.274;12.292;2023-03-14T15:36:22;8.10;99.90
1800;DHT22;919;48.274;12.292;2023-03-14T15:38:49;8.10;99.90
1800;DHT22;919;48.274;12.292;2023-03-14T15:41:16;8.10;99.90
1800;DHT22;919;48.274;12.292;2023-03-14T15:43:43;8.00;99.90
1800;DHT22;919;48.274;12.292;2023-03-14T15:46:11;8.10;99.90
1800;DHT22;919;48.274;12.292;2023-03-14T15:48:38;8.10;99.90
1800;DHT22;919;48.274;12.292;2023-03-14T15:51:05;8.10;99.90
1800;DHT22;919;48.274;12.292;2023-03-14T15:53:32;8.10;99.90
1800;DHT22;919;48.274;12.292;2023-03-14T15:56:02;8.10;99.90
1800;DHT22;919;48.274;12.292;2023-03-14T15:58:29;8.10;99.90
1800;DHT22;919;48.274;12.292;2023-03-14T16:00:59;8.10;99.90
1800;DHT22;919;48.274;12.292;2023-03-14T16:03:28;8.10;99.90
1800;DHT22;919;48.274;12.292;2023-03-14T16:05:54;8.10;99.90
1800;DHT22;919;48.274;12.292;2023-03-14T16:08:22;8.10;99.90
1800;DHT22;919;48.274;12.292;2023-03-14T16:10:50;8.10;99.90
1800;DHT22;919;48.274;12.292;2023-03-14T16:13:18;8.10;99.90
1800;DHT22;919;48.274;12.292;2023-03-14T16:15:53;8.10;99.90
1800;DHT22;919;48.274;12.292;2023-03-14T16:18:20;8.10;99.90
1800;DHT22;919;48.274;12.292;2023-03-14T16:20:53;8.10;99.90
1800;DHT22;919;48.274;12.292;2023-03-14T16:23:20;8.10;99.90
1800;DHT22;919;48.274;12.292;2023-03-14T16:25:47;8.00;99.90
1800;DHT22;919;48.274;12.292;2023-03-14T16:28:13;8.00;99.90
1800;DHT22;919;48.274;12.292;2023-03-14T16:30:40;8.00;99.90
1800;DHT22;919;48.274;12.292;2023-03-14T16:33:08;7.90;99.90
1800;DHT22;919;48.274;12.292;2023-03-14T16:35:35;7.90;99.90